3VA5 weather

Goose Hunt Farm Airport
Leesburg, Virginia, United States

Public forecast

Using degrees Fahrenheit for public forecast. Weather courtesy of forecast.io.

Closest aviation weather report (METAR) to Goose Hunt Farm Airport

Closest report is Leesburg Executive Airport, 4.3 nm (8.0 km) NE. Retrieved 2020/06/01 08:35 UTC (16 minutes ago):

KJYO 010835Z AUTO 00000KT 10SM CLR 10/05 A3029 RMK AO2

Closest aviation forecast (TAF) to Goose Hunt Farm Airport

Closest forecast is Washington Dulles International Airport, 9.4 nm (17.4 km) ESE. Retrieved 2020/06/01 06:42 UTC (2 hours ago):

TAF KIAD 010539Z 0106/0212 32005KT P6SM FEW200 FEW250 FM020000 25004KT P6SM FEW150 FEW250 FM020900 VRB03KT P6SM SCT150 BKN200